Time;durP1;ratioP1;P1;durP2;ratioP2;P2;SDS_P1;SDS_P2;PMS_P1;PMS_P2;Temp;Humidity;BMP_temperature;BMP_pressure;BME280_temperature;BME280_humidity;BME280_pressure;Samples;Min_cycle;Max_cycle;Signal;HPM_P1;HPM_P2
2023/06/05 00:00:51;;;;;;;8.15;4.90;;;;;;;15.94;61.15;102494.38;5088662;28;20097;-80
2023/06/05 00:03:17;;;;;;;8.00;4.90;;;;;;;15.90;61.54;102499.56;5084533;28;20029;-79
2023/06/05 00:05:43;;;;;;;8.88;5.00;;;;;;;15.89;61.58;102498.66;5083074;28;20089;-81
2023/06/05 00:08:08;;;;;;;6.88;4.65;;;;;;;15.75;61.51;102489.63;5078814;28;20116;-80
2023/06/05 00:10:37;;;;;;;7.40;5.13;;;;;;;15.71;62.07;102493.09;5081624;28;20123;-79
2023/06/05 00:13:02;;;;;;;7.43;4.97;;;;;;;15.73;61.79;102496.63;5083172;28;20116;-79
2023/06/05 00:15:27;;;;;;;8.35;5.22;;;;;;;15.84;61.71;102497.72;5077810;28;20106;-80
2023/06/05 00:17:59;;;;;;;7.15;4.93;;;;;;;15.71;62.00;102493.97;5079183;28;20024;-80
2023/06/05 00:20:27;;;;;;;9.55;5.05;;;;;;;15.58;62.66;102488.47;5082193;28;20047;-79
2023/06/05 00:22:52;;;;;;;8.07;5.13;;;;;;;15.61;62.72;102496.41;5085499;28;20075;-81
2023/06/05 00:25:17;;;;;;;9.15;4.90;;;;;;;15.59;62.71;102492.88;5081261;28;20029;-81
2023/06/05 00:27:43;;;;;;;7.22;5.10;;;;;;;15.62;62.32;102498.16;5078498;28;20048;-80
2023/06/05 00:30:11;;;;;;;9.52;5.30;;;;;;;15.68;62.23;102503.53;5077911;28;20054;-79
2023/06/05 00:32:37;;;;;;;8.88;5.07;;;;;;;15.70;62.36;102496.56;5081592;28;20059;-81
2023/06/05 00:35:09;;;;;;;9.27;5.40;;;;;;;15.68;62.65;102500.91;5078585;28;20033;-80
2023/06/05 00:37:40;;;;;;;8.18;5.25;;;;;;;15.58;63.01;102493.72;5076745;28;20032;-80
2023/06/05 00:40:06;;;;;;;7.45;5.15;;;;;;;15.75;62.34;102495.78;5084175;28;20029;-78
2023/06/05 00:42:32;;;;;;;7.55;5.10;;;;;;;15.77;62.31;102496.72;5084575;28;20036;-80
2023/06/05 00:44:57;;;;;;;8.10;5.50;;;;;;;15.76;62.42;102488.78;5086480;28;20036;-79
2023/06/05 00:47:25;;;;;;;7.88;4.93;;;;;;;15.85;61.89;102491.59;5092161;28;20096;-80
2023/06/05 00:49:51;;;;;;;7.95;5.60;;;;;;;15.63;62.44;102492.06;5088656;28;20033;-81
2023/06/05 00:52:22;;;;;;;10.02;5.32;;;;;;;15.60;62.65;102489.38;5082211;28;20028;-80
2023/06/05 00:54:57;;;;;;;7.85;5.40;;;;;;;15.67;62.53;102492.16;5092161;28;20144;-79
2023/06/05 00:57:24;;;;;;;8.05;5.63;;;;;;;15.61;62.47;102494.69;5094041;28;20070;-79
2023/06/05 00:59:54;;;;;;;9.57;5.63;;;;;;;15.58;62.97;102491.97;5086235;28;20032;-79
2023/06/05 01:02:20;;;;;;;10.20;5.75;;;;;;;15.59;62.90;102500.75;5082048;28;20087;-79
2023/06/05 01:04:56;;;;;;;10.00;5.63;;;;;;;15.37;63.65;102487.16;5064195;28;20051;-80
2023/06/05 01:07:22;;;;;;;10.25;5.70;;;;;;;15.56;63.16;102492.78;5063916;28;20047;-79
2023/06/05 01:09:47;;;;;;;8.52;5.88;;;;;;;15.45;63.37;102495.19;5078696;28;20028;-79
2023/06/05 01:12:44;;;;;;;9.07;5.68;;;;;;;15.52;62.64;102493.56;5081084;28;20059;-80
2023/06/05 01:15:15;;;;;;;9.48;5.38;;;;;;;15.42;62.92;102490.78;5080872;28;20032;-80
2023/06/05 01:17:47;;;;;;;10.25;5.88;;;;;;;15.39;63.03;102479.31;5074298;28;20128;-80
2023/06/05 01:20:20;;;;;;;8.32;5.70;;;;;;;15.32;63.19;102480.03;5076745;28;20078;-80
2023/06/05 01:23:03;;;;;;;10.18;5.97;;;;;;;15.26;63.52;102479.91;5057748;28;20036;-80
2023/06/05 01:25:29;;;;;;;11.55;5.97;;;;;;;15.32;63.15;102478.28;5075482;28;20124;-79
2023/06/05 01:28:15;;;;;;;10.02;5.93;;;;;;;15.26;63.41;102483.44;5062122;28;20036;-79
2023/06/05 01:31:05;;;;;;;9.65;5.93;;;;;;;15.09;64.07;102481.31;5079518;28;20037;-80
2023/06/05 01:33:41;;;;;;;11.40;5.90;;;;;;;15.27;63.18;102479.06;5079812;28;20039;-79
2023/06/05 01:36:10;;;;;;;8.32;5.50;;;;;;;15.06;63.82;102474.28;5086664;28;20056;-79
2023/06/05 01:38:36;;;;;;;8.57;5.97;;;;;;;14.96;64.24;102474.94;5092355;28;20040;-79
2023/06/05 01:41:03;;;;;;;10.10;6.25;;;;;;;15.01;64.36;102474.16;5074606;28;20141;-79
2023/06/05 01:43:33;;;;;;;11.05;6.13;;;;;;;14.97;64.42;102476.72;5090683;28;20041;-80
2023/06/05 01:45:59;;;;;;;10.23;5.85;;;;;;;15.15;63.53;102468.31;5074080;28;20031;-80
2023/06/05 01:48:29;;;;;;;10.05;6.05;;;;;;;14.99;64.27;102464.50;5092388;28;20027;-80
2023/06/05 01:50:55;;;;;;;12.90;6.40;;;;;;;14.99;64.85;102462.78;5092216;28;20058;-79
2023/06/05 01:53:21;;;;;;;13.95;6.45;;;;;;;15.02;64.52;102467.19;5094155;28;20056;-81
2023/06/05 01:55:48;;;;;;;9.65;6.00;;;;;;;15.01;64.60;102470.66;5090730;28;20041;-78
2023/06/05 01:58:13;;;;;;;10.63;6.30;;;;;;;15.10;64.36;102460.34;5088113;28;20032;-79
2023/06/05 02:00:42;;;;;;;7.90;5.50;;;;;;;15.15;63.92;102461.31;5083654;28;20513;-81
2023/06/05 02:03:07;;;;;;;9.63;6.13;;;;;;;15.25;63.55;102463.25;5082433;28;20032;-78
2023/06/05 02:05:33;;;;;;;11.98;6.60;;;;;;;15.20;64.13;102459.66;5074649;28;20105;-81
2023/06/05 02:08:05;;;;;;;10.50;6.18;;;;;;;15.32;63.89;102466.91;5075792;28;20273;-80
2023/06/05 02:10:31;;;;;;;10.50;6.18;;;;;;;15.35;63.71;102459.09;5076747;28;20041;-79
2023/06/05 02:12:59;;;;;;;8.82;5.53;;;;;;;15.35;63.69;102467.88;5081810;28;20719;-79
2023/06/05 02:15:25;;;;;;;10.60;6.43;;;;;;;15.26;64.03;102462.41;5081809;28;20131;-80
2023/06/05 02:17:53;;;;;;;11.20;6.35;;;;;;;15.17;64.23;102453.47;5082188;28;20028;-78
2023/06/05 02:20:20;;;;;;;11.55;6.32;;;;;;;15.19;64.12;102455.25;5088883;28;20040;-80
2023/06/05 02:22:57;;;;;;;12.07;6.28;;;;;;;15.10;64.38;102460.34;5089786;28;20021;-81
2023/06/05 02:25:26;;;;;;;11.15;6.25;;;;;;;15.10;64.41;102455.09;5087978;28;20040;-79
2023/06/05 02:27:58;;;;;;;10.10;6.20;;;;;;;15.15;64.28;102448.19;5092069;28;20042;-78
2023/06/05 02:30:26;;;;;;;10.93;6.07;;;;;;;15.05;64.72;102450.63;5093669;28;20085;-78
2023/06/05 02:33:04;;;;;;;11.75;6.07;;;;;;;14.99;64.74;102454.91;5090441;28;20051;-79
2023/06/05 02:35:29;;;;;;;9.73;6.40;;;;;;;14.86;64.94;102455.50;5082625;28;20036;-79
2023/06/05 02:38:01;;;;;;;10.27;6.70;;;;;;;14.92;64.47;102452.09;5086526;28;20060;-80
2023/06/05 02:40:26;;;;;;;9.35;6.05;;;;;;;14.83;64.39;102459.78;5092815;28;20030;-80
2023/06/05 02:42:52;;;;;;;10.05;5.93;;;;;;;14.87;64.37;102453.75;5098328;28;20046;-79
2023/06/05 02:45:20;;;;;;;10.27;6.15;;;;;;;14.78;64.53;102453.53;5086949;28;20056;-80
2023/06/05 02:47:45;;;;;;;10.23;6.30;;;;;;;14.76;64.27;102457.91;5084241;28;20036;-80
2023/06/05 02:50:11;;;;;;;13.00;6.63;;;;;;;14.74;64.58;102455.22;5067482;28;20028;-81
2023/06/05 02:52:39;;;;;;;11.43;6.38;;;;;;;14.73;64.21;102457.81;5078081;28;20029;-80
2023/06/05 02:55:08;;;;;;;10.07;6.75;;;;;;;14.71;64.16;102451.63;5080375;28;20115;-79
2023/06/05 02:57:40;;;;;;;11.15;6.35;;;;;;;14.74;63.98;102447.34;5063451;28;20032;-79
2023/06/05 03:00:16;;;;;;;9.45;6.63;;;;;;;14.64;64.27;102449.75;5088456;28;20043;-79
2023/06/05 03:02:51;;;;;;;11.25;6.45;;;;;;;14.67;64.11;102441.94;5077203;28;20044;-80
2023/06/05 03:05:18;;;;;;;;;;;;;;;14.69;64.12;102443.75;5076759;28;20040;-77
2023/06/05 03:07:43;;;;;;;10.80;6.18;;;;;;;14.66;64.36;102450.66;5088284;28;19951;-78
2023/06/05 03:10:09;;;;;;;11.15;6.40;;;;;;;14.63;64.42;102442.72;5097825;28;20033;-81
2023/06/05 03:12:34;;;;;;;11.25;6.45;;;;;;;14.59;64.48;102447.91;5087568;28;20039;-79
2023/06/05 03:15:00;;;;;;;11.48;6.32;;;;;;;14.56;64.74;102436.47;5090472;28;20033;-80
2023/06/05 03:17:29;;;;;;;9.90;6.53;;;;;;;14.51;64.82;102440.72;5089407;28;20424;-79
2023/06/05 03:19:55;;;;;;;11.05;6.47;;;;;;;14.49;65.37;102435.44;5095673;28;20035;-80
2023/06/05 03:22:20;;;;;;;10.07;6.45;;;;;;;14.57;64.95;102439.13;5094462;28;20034;-78
2023/06/05 03:24:45;;;;;;;11.55;6.72;;;;;;;14.27;66.34;102441.03;5084426;28;20028;-79
2023/06/05 03:27:11;;;;;;;13.57;6.75;;;;;;;14.45;65.49;102436.22;5078510;28;20037;-78
2023/06/05 03:29:36;;;;;;;10.60;6.40;;;;;;;14.55;65.07;102432.94;5079611;28;20032;-79
2023/06/05 03:32:02;;;;;;;11.18;6.50;;;;;;;14.70;64.75;102436.75;5073439;28;20025;-81
2023/06/05 03:34:29;;;;;;;11.00;6.30;;;;;;;14.67;64.79;102432.31;5083279;28;20028;-79
2023/06/05 03:36:58;;;;;;;11.25;6.90;;;;;;;14.51;65.50;102432.84;5078569;28;20436;-79
2023/06/05 03:39:27;;;;;;;10.60;6.80;;;;;;;14.60;65.10;102428.69;5077593;28;20036;-78
2023/06/05 03:41:52;;;;;;;13.18;6.63;;;;;;;14.66;64.73;102432.28;5079060;28;20032;-79
2023/06/05 03:44:17;;;;;;;12.63;6.43;;;;;;;14.61;65.07;102435.69;5079683;28;20037;-78
2023/06/05 03:46:44;;;;;;;13.38;6.80;;;;;;;14.70;64.62;102442.00;5097573;28;20040;-78
2023/06/05 03:49:09;;;;;;;10.43;6.72;;;;;;;14.69;64.86;102437.59;5098287;28;20047;-79
2023/06/05 03:51:35;;;;;;;10.50;6.38;;;;;;;14.70;64.50;102437.63;5080237;28;20036;-80
2023/06/05 03:54:19;;;;;;;13.65;6.65;;;;;;;14.74;64.68;102433.34;5072628;28;20039;-80
2023/06/05 03:56:49;;;;;;;11.82;6.53;;;;;;;14.85;64.24;102434.44;5075693;28;20064;-80
2023/06/05 03:59:19;;;;;;;11.38;6.85;;;;;;;14.68;64.29;102438.47;5078410;28;20116;-80
2023/06/05 04:01:45;;;;;;;10.75;6.30;;;;;;;14.75;64.26;102437.75;5081468;28;20032;-80
2023/06/05 04:04:10;;;;;;;10.77;6.28;;;;;;;14.74;64.49;102441.22;5076451;28;20485;-79
2023/06/05 04:06:36;;;;;;;11.20;6.13;;;;;;;14.75;64.65;102443.88;5075941;28;20033;-79
2023/06/05 04:09:11;;;;;;;11.15;6.40;;;;;;;14.86;64.26;102442.34;5074046;28;20036;-78
2023/06/05 04:11:44;;;;;;;9.65;6.15;;;;;;;14.86;64.60;102442.34;5074856;28;20428;-80
2023/06/05 04:14:25;;;;;;;10.52;6.15;;;;;;;14.88;64.76;102448.50;5073963;28;20037;-79
2023/06/05 04:16:53;;;;;;;9.70;6.00;;;;;;;15.08;64.18;102437.53;5073983;28;20049;-79
2023/06/05 04:19:21;;;;;;;9.70;6.07;;;;;;;15.12;63.74;102442.00;5074365;28;20032;-79
2023/06/05 04:21:56;;;;;;;8.63;5.63;;;;;;;15.28;63.38;102446.69;5073789;28;20032;-79
2023/06/05 04:24:21;;;;;;;9.93;5.97;;;;;;;15.23;63.54;102446.59;5073868;28;20033;-79
2023/06/05 04:26:47;;;;;;;8.82;5.80;;;;;;;15.40;63.19;102447.81;5074949;28;20447;-80
2023/06/05 04:29:18;;;;;;;9.68;6.07;;;;;;;15.42;63.39;102451.34;5074605;28;20397;-80
2023/06/05 04:31:50;;;;;;;10.90;6.00;;;;;;;15.68;63.13;102461.47;5057534;28;20115;-79
2023/06/05 04:34:21;;;;;;;9.65;5.75;;;;;;;15.62;62.93;102456.97;5074968;28;20162;-78
2023/06/05 04:36:49;;;;;;;8.88;5.65;;;;;;;15.93;62.72;102460.13;5074727;28;20520;-82
2023/06/05 04:39:21;;;;;;;9.00;5.90;;;;;;;16.00;62.48;102457.66;5074652;28;20075;-80
2023/06/05 04:42:02;;;;;;;9.90;5.80;;;;;;;16.14;61.83;102457.88;5075161;28;20085;-79
2023/06/05 04:44:27;;;;;;;10.80;6.07;;;;;;;16.20;61.58;102455.34;5082528;28;20029;-79
2023/06/05 04:47:08;;;;;;;9.48;6.10;;;;;;;16.41;61.19;102450.38;5086784;28;20385;-81
2023/06/05 04:49:33;;;;;;;9.93;5.82;;;;;;;16.49;60.81;102455.75;5085571;28;20078;-79
2023/06/05 04:52:02;;;;;;;9.90;5.65;;;;;;;16.57;60.10;102456.75;5086012;28;20032;-79
2023/06/05 04:54:27;;;;;;;8.00;5.70;;;;;;;16.89;59.76;102458.13;5084520;28;20033;-81
2023/06/05 04:56:53;;;;;;;8.82;5.78;;;;;;;16.70;60.11;102457.84;5079057;28;20060;-80
2023/06/05 04:59:18;;;;;;;8.10;5.47;;;;;;;17.04;59.66;102460.03;5057455;28;20048;-80
2023/06/05 05:01:44;;;;;;;9.75;6.30;;;;;;;16.95;59.47;102452.91;5076769;28;20025;-81
2023/06/05 05:04:11;;;;;;;8.80;6.07;;;;;;;16.84;58.83;102459.78;5075654;28;20028;-79
2023/06/05 05:06:37;;;;;;;9.15;6.05;;;;;;;17.28;58.08;102462.94;5075653;28;20067;-79
2023/06/05 05:09:14;;;;;;;8.20;6.05;;;;;;;17.44;57.96;102459.59;5079543;28;20033;-80
2023/06/05 05:11:45;;;;;;;10.52;6.20;;;;;;;17.71;56.42;102459.03;5061917;28;20436;-80
2023/06/05 05:14:20;;;;;;;11.75;6.28;;;;;;;17.72;56.89;102452.00;5064331;28;20024;-79
2023/06/05 05:16:49;;;;;;;10.90;6.20;;;;;;;17.77;56.58;102452.91;5070642;28;20044;-78
2023/06/05 05:19:24;;;;;;;10.52;6.50;;;;;;;18.13;55.18;102457.59;5063092;28;20493;-79
2023/06/05 05:21:58;;;;;;;8.30;6.13;;;;;;;18.56;54.11;102457.06;5078787;28;20036;-79
2023/06/05 05:24:24;;;;;;;9.25;6.50;;;;;;;18.88;54.50;102441.38;5085025;28;20436;-80
2023/06/05 05:26:56;;;;;;;9.57;6.55;;;;;;;20.03;50.26;102443.34;5081900;28;20051;-79
2023/06/05 05:29:24;;;;;;;10.35;6.55;;;;;;;20.64;47.51;102436.19;5087326;28;20045;-78
2023/06/05 05:31:53;;;;;;;10.55;6.60;;;;;;;21.43;46.10;102441.13;5079746;28;20032;-79
2023/06/05 05:34:18;;;;;;;10.45;6.40;;;;;;;21.86;45.05;102446.09;5080154;28;20021;-80
2023/06/05 05:36:43;;;;;;;8.27;6.13;;;;;;;21.72;45.02;102446.22;5077028;28;20025;-79
2023/06/05 05:39:24;;;;;;;9.65;6.35;;;;;;;21.37;45.86;102446.47;5076584;28;20083;-80
2023/06/05 05:41:49;;;;;;;7.90;6.20;;;;;;;21.41;45.28;102447.31;5076827;28;20034;-80
2023/06/05 05:44:21;;;;;;;10.55;6.68;;;;;;;20.91;46.14;102451.13;5085420;28;20092;-80
2023/06/05 05:46:52;;;;;;;8.70;6.45;;;;;;;20.86;46.29;102441.44;5084757;28;20422;-79
2023/06/05 05:49:29;;;;;;;8.82;6.70;;;;;;;20.60;46.80;102439.75;5061957;28;20443;-79
2023/06/05 05:52:01;;;;;;;10.52;7.13;;;;;;;19.66;49.66;102452.16;5075418;28;20389;-81
2023/06/05 05:54:27;;;;;;;10.35;7.13;;;;;;;19.27;50.84;102455.59;5054112;28;20392;-79
2023/06/05 05:56:55;;;;;;;12.90;7.15;;;;;;;19.64;49.87;102452.16;5054502;28;20028;-81
2023/06/05 05:59:21;;;;;;;10.40;6.72;;;;;;;19.14;51.45;102451.16;5073300;28;20505;-80
2023/06/05 06:01:48;;;;;;;8.15;6.57;;;;;;;19.29;51.27;102453.81;5074428;28;20028;-81
2023/06/05 06:04:14;;;;;;;10.73;6.53;;;;;;;19.37;51.22;102452.09;5055895;28;20074;-80
2023/06/05 06:06:40;;;;;;;13.57;6.65;;;;;;;19.13;51.15;102449.38;5076813;28;20036;-79
2023/06/05 06:09:18;;;;;;;10.20;6.60;;;;;;;19.25;51.29;102458.22;5079473;28;20400;-79
2023/06/05 06:11:49;;;;;;;10.00;6.38;;;;;;;19.05;51.77;102458.16;5064125;28;20043;-81
2023/06/05 06:14:22;;;;;;;10.07;6.30;;;;;;;19.31;51.37;102460.00;5074965;28;20035;-80
2023/06/05 06:16:49;;;;;;;9.65;6.53;;;;;;;19.29;50.43;102460.00;5057087;28;20039;-81
2023/06/05 06:19:16;;;;;;;9.02;5.88;;;;;;;20.08;49.40;102464.50;5074464;28;20032;-80
2023/06/05 06:21:44;;;;;;;9.23;6.45;;;;;;;19.06;50.57;102461.69;5074202;28;20262;-80
2023/06/05 06:24:09;;;;;;;12.77;6.68;;;;;;;19.46;49.21;102460.06;5056133;28;20029;-79
2023/06/05 06:26:40;;;;;;;9.68;6.55;;;;;;;19.39;50.14;102458.28;5073766;28;20536;-80
2023/06/05 06:29:25;;;;;;;9.05;6.63;;;;;;;19.43;50.27;102457.41;5074519;28;20029;-80
2023/06/05 06:31:50;;;;;;;10.45;6.20;;;;;;;19.64;49.98;102460.09;5075206;28;20081;-80
2023/06/05 06:34:22;;;;;;;11.80;6.38;;;;;;;19.89;49.17;102463.63;5076730;28;20036;-78
2023/06/05 06:36:53;;;;;;;12.05;6.68;;;;;;;20.01;47.85;102468.94;5085867;28;20124;-79
2023/06/05 06:39:24;;;;;;;9.55;6.00;;;;;;;20.11;48.08;102468.06;5079500;28;20082;-80
2023/06/05 06:41:51;;;;;;;8.45;6.45;;;;;;;19.98;48.02;102466.28;5079116;28;20036;-81
2023/06/05 06:44:16;;;;;;;13.05;6.20;;;;;;;20.36;46.50;102461.00;5074872;28;20036;-82
2023/06/05 06:46:48;;;;;;;9.40;5.85;;;;;;;20.74;46.58;102466.19;5074143;28;20040;-81
2023/06/05 06:49:17;;;;;;;10.30;5.78;;;;;;;21.13;45.43;102464.25;5056784;28;20128;-78
2023/06/05 06:51:48;;;;;;;9.43;5.40;;;;;;;20.99;46.00;102459.91;5073541;28;20044;-79
2023/06/05 06:54:28;;;;;;;8.40;6.05;;;;;;;20.06;47.06;102469.84;5072289;28;20025;-80
2023/06/05 06:56:57;;;;;;;7.00;5.30;;;;;;;21.03;45.36;102464.31;5055405;28;20043;-81
2023/06/05 06:59:25;;;;;;;8.32;5.00;;;;;;;21.52;43.96;102465.84;5071464;28;20378;-80
2023/06/05 07:02:16;;;;;;;8.10;4.93;;;;;;;21.26;43.76;102466.88;5053539;28;20047;-80
2023/06/05 07:04:43;;;;;;;8.52;5.10;;;;;;;20.40;45.87;102460.09;5074063;28;20047;-81
2023/06/05 07:07:13;;;;;;;8.65;5.15;;;;;;;21.00;44.32;102466.97;5057623;28;20032;-81
2023/06/05 07:09:45;;;;;;;9.55;5.20;;;;;;;22.07;43.31;102463.69;5073588;28;20090;-81
2023/06/05 07:12:15;;;;;;;9.90;5.15;;;;;;;22.90;40.55;102462.78;5059433;28;20040;-83
2023/06/05 07:14:40;;;;;;;6.32;4.88;;;;;;;24.67;37.31;102459.06;5063305;28;20033;-80
2023/06/05 07:17:06;;;;;;;8.25;4.82;;;;;;;25.22;36.26;102465.94;5077638;28;20046;-82
2023/06/05 07:19:33;;;;;;;9.07;5.20;;;;;;;25.34;36.21;102464.78;5070380;28;20064;-79
2023/06/05 07:22:00;;;;;;;6.28;4.57;;;;;;;25.41;35.24;102472.63;5072213;28;20040;-82
2023/06/05 07:24:26;;;;;;;6.25;4.40;;;;;;;26.38;34.40;102468.47;5072490;28;20064;-81
2023/06/05 07:27:03;;;;;;;7.28;4.13;;;;;;;25.54;34.30;102470.53;5075737;28;20033;-81
2023/06/05 07:29:28;;;;;;;5.65;4.05;;;;;;;25.49;34.82;102475.13;5077313;28;20370;-82
2023/06/05 07:31:58;;;;;;;5.82;4.13;;;;;;;24.06;37.16;102475.28;5078449;28;20082;-79
2023/06/05 07:34:24;;;;;;;7.13;4.65;;;;;;;23.90;36.79;102472.91;5047333;28;20285;-79
2023/06/05 07:36:51;;;;;;;7.57;4.53;;;;;;;23.75;37.53;102476.69;5056087;28;20033;-81
2023/06/05 07:39:18;;;;;;;5.65;4.18;;;;;;;23.77;37.95;102474.91;5059007;28;20178;-79
2023/06/05 07:41:44;;;;;;;6.43;4.22;;;;;;;24.13;37.99;102466.28;5041781;28;20044;-78
2023/06/05 07:44:15;;;;;;;6.65;4.10;;;;;;;24.78;35.90;102463.28;5043445;28;20033;-81
2023/06/05 07:46:44;;;;;;;6.28;4.18;;;;;;;25.54;34.52;102467.00;5060250;28;20507;-78
2023/06/05 07:49:10;;;;;;;5.30;3.85;;;;;;;25.81;34.71;102469.00;5062847;28;20036;-81
2023/06/05 07:51:43;;;;;;;6.13;3.63;;;;;;;26.85;32.76;102468.00;5059548;28;20600;-81
2023/06/05 07:54:13;;;;;;;9.57;4.30;;;;;;;26.35;33.32;102465.88;5038984;28;20029;-83
2023/06/05 07:56:39;;;;;;;5.28;3.80;;;;;;;26.05;32.80;102463.03;5037405;28;20449;-81
2023/06/05 07:59:05;;;;;;;6.43;4.35;;;;;;;26.29;32.57;102461.56;5054257;28;20029;-80
2023/06/05 08:01:36;;;;;;;5.85;3.97;;;;;;;26.18;32.44;102475.19;5036502;28;20040;-83
2023/06/05 08:04:24;;;;;;;7.38;4.30;;;;;;;25.93;33.47;102465.16;5059127;28;20110;-79
2023/06/05 08:06:53;;;;;;;5.88;4.28;;;;;;;26.45;32.18;102454.00;5065664;28;20040;-79
2023/06/05 08:09:24;;;;;;;5.68;3.58;;;;;;;26.65;32.91;102463.22;5066463;28;20037;-81
2023/06/05 08:11:55;;;;;;;5.68;4.13;;;;;;;26.27;32.89;102463.41;5047644;28;20044;-82
2023/06/05 08:14:24;;;;;;;8.15;4.40;;;;;;;26.60;33.37;102464.25;5054548;28;20021;-84
2023/06/05 08:16:49;;;;;;;6.70;4.43;;;;;;;26.70;32.18;102463.09;5053907;28;20040;-82
2023/06/05 08:19:27;;;;;;;7.72;4.10;;;;;;;25.45;33.91;102471.63;5037268;28;20144;-81
2023/06/05 08:21:56;;;;;;;5.97;4.32;;;;;;;25.71;34.22;102456.81;5059390;28;20067;-79
2023/06/05 08:24:28;;;;;;;5.70;4.07;;;;;;;25.81;33.57;102467.22;5036423;28;20070;-83
2023/06/05 08:26:54;;;;;;;5.68;3.55;;;;;;;25.78;33.53;102477.13;5053912;28;20039;-82
2023/06/05 08:29:25;;;;;;;6.45;3.78;;;;;;;26.07;32.42;102463.91;5053013;28;20029;-81
2023/06/05 08:31:54;;;;;;;5.13;3.20;;;;;;;26.49;32.27;102463.69;5053890;28;20069;-81
2023/06/05 08:34:25;;;;;;;6.60;4.07;;;;;;;25.56;33.29;102465.13;5056572;28;20040;-82
2023/06/05 08:36:51;;;;;;;7.60;3.75;;;;;;;24.91;33.99;102457.72;5055825;28;20033;-79
2023/06/05 08:39:16;;;;;;;6.65;3.90;;;;;;;23.42;36.90;102462.94;5060794;28;20040;-82
2023/06/05 08:41:59;;;;;;;5.78;3.97;;;;;;;22.62;38.15;102461.34;5061320;28;20132;-82
2023/06/05 08:44:28;;;;;;;7.38;4.00;;;;;;;22.33;39.66;102464.28;5060513;28;20048;-80
2023/06/05 08:47:14;;;;;;;7.07;4.30;;;;;;;22.22;39.84;102452.88;5062793;28;20029;-81
2023/06/05 08:49:43;;;;;;;5.82;4.00;;;;;;;22.12;41.13;102461.84;5042054;28;20033;-81
2023/06/05 08:52:14;;;;;;;6.00;4.35;;;;;;;22.08;40.70;102454.81;5061872;28;20485;-82
2023/06/05 08:54:41;;;;;;;6.88;3.83;;;;;;;22.55;40.53;102456.97;5043029;28;20029;-85
2023/06/05 08:57:10;;;;;;;5.75;4.35;;;;;;;22.13;40.80;102456.53;5047764;28;20060;-82
2023/06/05 08:59:40;;;;;;;7.20;4.50;;;;;;;21.80;41.79;102457.66;5052105;28;20127;-82
2023/06/05 09:02:11;;;;;;;5.47;4.22;;;;;;;22.06;41.44;102454.81;5053387;28;20037;-81
2023/06/05 09:04:46;;;;;;;8.20;4.80;;;;;;;21.53;42.81;102462.31;5052548;28;20506;-81
2023/06/05 09:07:18;;;;;;;6.60;4.30;;;;;;;22.22;42.01;102455.53;5053778;28;20083;-79
2023/06/05 09:09:43;;;;;;;8.00;4.70;;;;;;;22.04;41.16;102450.41;5053383;28;20540;-81
2023/06/05 09:12:18;;;;;;;7.53;4.65;;;;;;;22.16;42.04;102458.25;5057568;28;20045;-80
2023/06/05 09:14:46;;;;;;;7.93;5.03;;;;;;;21.93;42.00;102447.81;5056990;28;20041;-79
2023/06/05 09:17:14;;;;;;;6.53;4.60;;;;;;;21.92;42.06;102451.38;5057825;28;20045;-82
2023/06/05 09:19:44;;;;;;;8.10;4.75;;;;;;;21.99;42.16;102442.50;5055494;28;20040;-82
2023/06/05 09:22:31;;;;;;;6.80;4.80;;;;;;;22.22;41.29;102443.16;5055129;28;20037;-81
2023/06/05 09:24:57;;;;;;;9.52;4.55;;;;;;;22.59;41.75;102443.63;5054267;28;20037;-80
2023/06/05 09:27:22;;;;;;;6.63;4.70;;;;;;;22.88;41.08;102442.41;5051998;28;20029;-80
2023/06/05 09:30:02;;;;;;;7.20;4.65;;;;;;;22.97;40.49;102437.00;5053601;28;20559;-81
2023/06/05 09:32:30;;;;;;;7.65;4.93;;;;;;;22.20;41.71;102441.41;5052531;28;20127;-79
2023/06/05 09:35:00;;;;;;;7.40;4.30;;;;;;;22.47;40.78;102441.13;5052843;28;20072;-81
2023/06/05 09:37:35;;;;;;;9.35;4.88;;;;;;;22.16;41.32;102434.34;5054568;28;20477;-82
2023/06/05 09:40:07;;;;;;;8.75;5.05;;;;;;;22.12;41.40;102443.25;5055152;28;20493;-80
2023/06/05 09:42:34;;;;;;;7.63;5.45;;;;;;;21.77;42.20;102438.22;5053479;28;20037;-82
2023/06/05 09:45:04;;;;;;;6.85;4.65;;;;;;;22.26;41.53;102433.38;5052510;28;20454;-81
2023/06/05 09:47:29;;;;;;;7.03;4.80;;;;;;;22.39;40.87;102428.78;5051330;28;20037;-81
2023/06/05 09:49:58;;;;;;;9.13;5.40;;;;;;;22.13;41.93;102434.41;5050099;28;20040;-82
2023/06/05 09:52:23;;;;;;;8.77;5.38;;;;;;;22.13;42.00;102429.09;5050369;28;20037;-81
2023/06/05 09:54:56;;;;;;;8.02;5.03;;;;;;;22.01;42.60;102437.19;5053994;28;20032;-82
2023/06/05 09:57:22;;;;;;;7.18;4.93;;;;;;;22.79;40.94;102434.56;5058113;28;20039;-78
2023/06/05 09:59:51;;;;;;;6.75;4.95;;;;;;;22.86;40.96;102431.84;5056876;28;20101;-79
2023/06/05 10:02:19;;;;;;;7.50;5.50;;;;;;;22.46;41.49;102433.16;5035312;28;20033;-80
2023/06/05 10:05:00;;;;;;;9.30;5.10;;;;;;;22.79;40.47;102430.16;5032866;28;20367;-81
2023/06/05 10:07:26;;;;;;;7.18;5.10;;;;;;;22.45;40.87;102434.94;5035478;28;20040;-79
2023/06/05 10:09:59;;;;;;;7.47;5.30;;;;;;;22.10;41.62;102430.00;5056798;28;20421;-80
2023/06/05 10:12:27;;;;;;;8.65;5.20;;;;;;;22.45;40.09;102421.63;5052049;28;20036;-82
2023/06/05 10:14:56;;;;;;;8.75;5.10;;;;;;;22.48;40.41;102431.38;5036078;28;20039;-81
2023/06/05 10:17:21;;;;;;;10.05;5.53;;;;;;;22.38;40.65;102421.75;5051691;28;20629;-80
2023/06/05 10:19:51;;;;;;;8.27;5.30;;;;;;;22.08;41.31;102426.44;5032924;28;20029;-82
2023/06/05 10:22:19;;;;;;;7.32;5.50;;;;;;;22.16;41.14;102426.38;5051277;28;20029;-80
2023/06/05 10:25:06;;;;;;;11.02;5.43;;;;;;;22.33;40.24;102416.47;5051847;28;20040;-82
2023/06/05 10:27:54;;;;;;;9.27;5.03;;;;;;;22.58;40.32;102415.28;5056640;28;20036;-78
2023/06/05 10:31:08;;;;;;;6.85;5.20;;;;;;;22.29;40.85;102419.19;5043684;28;20029;-80
2023/06/05 10:33:46;;;;;;;13.27;5.22;;;;;;;22.30;42.28;102416.50;5057405;28;20037;-80
2023/06/05 10:36:40;;;;;;;7.22;5.40;;;;;;;22.86;40.44;102418.53;5061330;28;20033;-78
2023/06/05 10:39:14;;;;;;;7.78;5.40;;;;;;;22.84;39.59;102417.66;5060123;28;20037;-82
2023/06/05 10:41:40;;;;;;;11.45;5.57;;;;;;;22.98;39.31;102406.84;5059324;28;20397;-79
2023/06/05 10:44:08;;;;;;;8.13;5.80;;;;;;;22.96;40.20;102416.63;5060491;28;20059;-80
2023/06/05 10:46:38;;;;;;;10.57;6.63;;;;;;;22.71;39.50;102413.34;5050567;28;20033;-80
2023/06/05 10:49:21;;;;;;;12.48;6.10;;;;;;;22.85;40.15;102407.91;5050191;28;20033;-78
2023/06/05 10:51:50;;;;;;;9.83;5.70;;;;;;;22.96;40.29;102408.63;5049256;28;20739;-78
2023/06/05 10:54:21;;;;;;;9.07;5.60;;;;;;;22.40;41.14;102406.66;5049612;28;20460;-80
2023/06/05 10:57:06;;;;;;;9.98;5.57;;;;;;;23.17;39.10;102407.47;5048634;28;20170;-80
2023/06/05 10:59:34;;;;;;;8.75;5.90;;;;;;;23.48;39.99;102402.59;5049186;28;20061;-79
2023/06/05 11:02:19;;;;;;;9.27;6.53;;;;;;;23.01;39.51;102402.34;5053322;28;20112;-78
2023/06/05 11:04:47;;;;;;;11.52;6.70;;;;;;;23.50;37.83;102406.97;5003426;28;20553;-81
2023/06/05 11:07:28;;;;;;;9.82;6.15;;;;;;;23.52;38.85;102402.50;5054176;28;20037;-80
2023/06/05 11:10:02;;;;;;;12.98;5.90;;;;;;;23.82;38.17;102393.13;5054489;28;20498;-81
2023/06/05 11:12:54;;;;;;;10.60;6.10;;;;;;;22.93;39.52;102398.91;5054660;28;20123;-80
2023/06/05 11:15:22;;;;;;;8.55;6.20;;;;;;;23.38;39.04;102391.16;5057335;28;20029;-80
2023/06/05 11:17:53;;;;;;;8.88;6.25;;;;;;;23.70;37.42;102394.22;5058932;28;20068;-80
2023/06/05 11:20:28;;;;;;;12.50;6.20;;;;;;;23.77;37.87;102390.56;5040093;28;20029;-82
2023/06/05 11:22:53;;;;;;;8.15;5.45;;;;;;;23.62;37.00;102393.47;5056518;28;20124;-80
2023/06/05 11:25:21;;;;;;;6.72;5.20;;;;;;;23.19;38.89;102390.56;5055148;28;20115;-78
2023/06/05 11:27:49;;;;;;;9.30;5.00;;;;;;;23.62;38.92;102398.78;5055823;28;20626;-80
2023/06/05 11:30:16;;;;;;;8.73;5.60;;;;;;;23.87;38.35;102388.59;5056370;28;20032;-80
2023/06/05 11:32:45;;;;;;;9.10;5.93;;;;;;;23.67;37.29;102388.06;5055274;28;20045;-82
2023/06/05 11:35:14;;;;;;;7.40;5.30;;;;;;;23.70;37.42;102380.03;5054116;28;20057;-80